VDA2676 EGNT-EKYT
Flight info
| Callsign | VDA2676 |
|---|---|
| Flight time | N/A |
| Altitude | 39000 |
| Route | ROBEM DCT DOKEN DCT NAMIK DCT ETVOK |
| Aircraft | IL76/H-SDFGHIM1RTUWXY/LB1 |
Departure
| Time | 2026-05-01 14:39 |
|---|---|
| Airport | Newcastle International Airport (EGNT) |
Arrival
| Time | N/A |
|---|---|
| Airport | Aalborg Airport (EKYT) |
| Time | Latitude | Longitude | Altitude | Speed | Heading |
|---|---|---|---|---|---|
| 2026-05-01 14:03 | 55.03883 | -1.70215 | 273 ft | 0 kts | 94° |
| 2026-05-01 14:28 | 55.03884 | -1.70229 | 273 ft | 4 kts | 94° |
| 2026-05-01 14:28 | 55.03886 | -1.70275 | 273 ft | 4 kts | 94° |
| 2026-05-01 14:28 | 55.03888 | -1.70321 | 273 ft | 3 kts | 94° |
| 2026-05-01 14:28 | 55.03891 | -1.70358 | 280 ft | 4 kts | 121° |
| 2026-05-01 14:29 | 55.03909 | -1.70382 | 275 ft | 4 kts | 176° |
| 2026-05-01 14:29 | 55.03934 | -1.70381 | 273 ft | 4 kts | 184° |
| 2026-05-01 14:30 | 55.03946 | -1.70380 | 273 ft | 0 kts | 184° |
| 2026-05-01 14:32 | 55.03926 | -1.70383 | 275 ft | 6 kts | 185° |
| 2026-05-01 14:32 | 55.03867 | -1.70393 | 275 ft | 10 kts | 185° |
| 2026-05-01 14:33 | 55.03792 | -1.70414 | 273 ft | 12 kts | 191° |
| 2026-05-01 14:33 | 55.03702 | -1.70435 | 273 ft | 14 kts | 185° |
| 2026-05-01 14:33 | 55.03671 | -1.70446 | 273 ft | 0 kts | 216° |
| 2026-05-01 14:33 | 55.03670 | -1.70454 | 273 ft | 1 kts | 247° |
| 2026-05-01 14:34 | 55.03674 | -1.70464 | 273 ft | 1 kts | 300° |
| 2026-05-01 14:34 | 55.03685 | -1.70463 | 276 ft | 3 kts | 4° |
| 2026-05-01 14:34 | 55.03741 | -1.70433 | 273 ft | 12 kts | 19° |
| 2026-05-01 14:34 | 55.03778 | -1.70338 | 273 ft | 11 kts | 86° |
| 2026-05-01 14:35 | 55.03773 | -1.70169 | 269 ft | 16 kts | 93° |
| 2026-05-01 14:35 | 55.03772 | -1.69946 | 266 ft | 20 kts | 84° |
| 2026-05-01 14:35 | 55.03798 | -1.69688 | 264 ft | 23 kts | 76° |
| 2026-05-01 14:35 | 55.03857 | -1.69411 | 261 ft | 26 kts | 66° |
| 2026-05-01 14:36 | 55.03937 | -1.69111 | 258 ft | 29 kts | 65° |
| 2026-05-01 14:36 | 55.03992 | -1.68909 | 257 ft | 27 kts | 65° |
| 2026-05-01 14:36 | 55.04068 | -1.68622 | 255 ft | 26 kts | 65° |
| 2026-05-01 14:36 | 55.04167 | -1.68242 | 253 ft | 26 kts | 64° |
| 2026-05-01 14:37 | 55.04241 | -1.67968 | 253 ft | 22 kts | 64° |
| 2026-05-01 14:37 | 55.04286 | -1.67800 | 252 ft | 24 kts | 65° |
| 2026-05-01 14:37 | 55.04334 | -1.67604 | 249 ft | 14 kts | 76° |
| 2026-05-01 14:37 | 55.04331 | -1.67472 | 247 ft | 12 kts | 102° |
| 2026-05-01 14:38 | 55.04267 | -1.67367 | 247 ft | 10 kts | 171° |
| 2026-05-01 14:38 | 55.04210 | -1.67406 | 248 ft | 9 kts | 230° |
| 2026-05-01 14:38 | 55.04203 | -1.67433 | 248 ft | 0 kts | 247° |
| 2026-05-01 14:39 | 55.04140 | -1.67673 | 252 ft | 61 kts | 245° |
| 2026-05-01 14:39 | 55.03837 | -1.68814 | 258 ft | 143 kts | 246° |
| 2026-05-01 14:39 | 55.03451 | -1.70509 | 1030 ft | 149 kts | 247° |
| 2026-05-01 14:39 | 55.03098 | -1.72205 | 2015 ft | 149 kts | 246° |
| 2026-05-01 14:40 | 55.03104 | -1.74101 | 2725 ft | 172 kts | 288° |
| 2026-05-01 14:40 | 55.03940 | -1.75733 | 3399 ft | 197 kts | 329° |
| 2026-05-01 14:40 | 55.05328 | -1.76348 | 4230 ft | 216 kts | 349° |
| 2026-05-01 14:40 | 55.06873 | -1.76683 | 5153 ft | 231 kts | 351° |
| 2026-05-01 14:41 | 55.08516 | -1.77033 | 6218 ft | 244 kts | 350° |
| 2026-05-01 14:41 | 55.10245 | -1.77392 | 7304 ft | 255 kts | 350° |
| 2026-05-01 14:41 | 55.12024 | -1.77778 | 8430 ft | 266 kts | 350° |
| 2026-05-01 14:41 | 55.13907 | -1.77896 | 9561 ft | 280 kts | 11° |
| 2026-05-01 14:42 | 55.15674 | -1.76367 | 10560 ft | 294 kts | 44° |
| 2026-05-01 14:42 | 55.16959 | -1.73439 | 11263 ft | 314 kts | 62° |
| 2026-05-01 14:42 | 55.18122 | -1.70049 | 12104 ft | 333 kts | 62° |
| 2026-05-01 14:42 | 55.19405 | -1.66543 | 13028 ft | 350 kts | 59° |
| 2026-05-01 14:43 | 55.20815 | -1.62963 | 13970 ft | 364 kts | 58° |
| 2026-05-01 14:43 | 55.22315 | -1.59300 | 14826 ft | 376 kts | 57° |
| 2026-05-01 14:43 | 55.23855 | -1.55589 | 15693 ft | 387 kts | 56° |
| 2026-05-01 14:43 | 55.25479 | -1.51742 | 16529 ft | 398 kts | 57° |
| 2026-05-01 14:44 | 55.27131 | -1.47754 | 17239 ft | 411 kts | 57° |
| 2026-05-01 14:44 | 55.30628 | -1.39380 | 18560 ft | 436 kts | 57° |
| 2026-05-01 14:44 | 55.32423 | -1.35028 | 19267 ft | 443 kts | 57° |
| 2026-05-01 14:45 | 55.34258 | -1.30637 | 20011 ft | 448 kts | 57° |
| 2026-05-01 14:45 | 55.37965 | -1.21645 | 21484 ft | 460 kts | 56° |
| 2026-05-01 14:45 | 55.39860 | -1.17073 | 22232 ft | 465 kts | 57° |
| 2026-05-01 14:46 | 55.41761 | -1.12418 | 22974 ft | 471 kts | 57° |
| 2026-05-01 14:46 | 55.45646 | -1.02952 | 24307 ft | 482 kts | 57° |
| 2026-05-01 14:46 | 55.47223 | -0.97770 | 24896 ft | 480 kts | 74° |
| 2026-05-01 14:47 | 55.47770 | -0.92013 | 25544 ft | 475 kts | 92° |
| 2026-05-01 14:47 | 55.47725 | -0.86278 | 26328 ft | 473 kts | 95° |
| 2026-05-01 14:47 | 55.47809 | -0.80479 | 27216 ft | 474 kts | 90° |
| 2026-05-01 14:48 | 55.48651 | -0.68952 | 29012 ft | 473 kts | 85° |
| 2026-05-01 14:48 | 55.49171 | -0.63231 | 29916 ft | 472 kts | 85° |
| 2026-05-01 14:48 | 55.50131 | -0.51833 | 31485 ft | 468 kts | 86° |
| 2026-05-01 14:49 | 55.51032 | -0.40510 | 33044 ft | 464 kts | 85° |
| 2026-05-01 14:49 | 55.51938 | -0.29266 | 34528 ft | 461 kts | 85° |
| 2026-05-01 14:50 | 55.52663 | -0.19946 | 35556 ft | 460 kts | 85° |
| 2026-05-01 14:50 | 55.53681 | -0.06895 | 36963 ft | 459 kts | 85° |
| 2026-05-01 14:51 | 55.54110 | -0.01311 | 37557 ft | 458 kts | 85° |
| 2026-05-01 14:51 | 55.54948 | 0.09831 | 38734 ft | 457 kts | 85° |
| 2026-05-01 14:52 | 55.55755 | 0.20977 | 39088 ft | 459 kts | 85° |
| 2026-05-01 14:52 | 55.56152 | 0.26570 | 39124 ft | 459 kts | 85° |
| 2026-05-01 14:53 | 55.57379 | 0.43287 | 39145 ft | 456 kts | 85° |
| 2026-05-01 14:53 | 55.58183 | 0.54431 | 39147 ft | 457 kts | 85° |
| 2026-05-01 14:54 | 55.58979 | 0.65594 | 39154 ft | 457 kts | 85° |
| 2026-05-01 14:54 | 55.59748 | 0.76688 | 39158 ft | 457 kts | 85° |
| 2026-05-01 14:55 | 55.60529 | 0.87856 | 39159 ft | 458 kts | 86° |
| 2026-05-01 14:55 | 55.61284 | 0.99073 | 39159 ft | 458 kts | 85° |
| 2026-05-01 14:56 | 55.62047 | 1.10267 | 39162 ft | 459 kts | 86° |
| 2026-05-01 14:56 | 55.62781 | 1.21471 | 39170 ft | 459 kts | 86° |
| 2026-05-01 14:57 | 55.63511 | 1.32629 | 39175 ft | 459 kts | 85° |
| 2026-05-01 14:57 | 55.64603 | 1.49485 | 39179 ft | 459 kts | 86° |
| 2026-05-01 14:58 | 55.65313 | 1.60723 | 39178 ft | 459 kts | 86° |
| 2026-05-01 14:58 | 55.66016 | 1.71963 | 39175 ft | 460 kts | 86° |
| 2026-05-01 14:59 | 55.66712 | 1.83228 | 39183 ft | 459 kts | 86° |
| 2026-05-01 14:59 | 55.67403 | 1.94490 | 39181 ft | 460 kts | 86° |
| 2026-05-01 15:00 | 55.68428 | 2.11318 | 39186 ft | 460 kts | 84° |
| 2026-05-01 15:00 | 55.69164 | 2.16839 | 39190 ft | 463 kts | 72° |
| 2026-05-01 15:01 | 55.70367 | 2.22144 | 39186 ft | 464 kts | 67° |
| 2026-05-01 15:01 | 55.73007 | 2.32605 | 39191 ft | 464 kts | 68° |
| 2026-05-01 15:02 | 55.75424 | 2.43216 | 39194 ft | 463 kts | 70° |
| 2026-05-01 15:02 | 55.77790 | 2.53791 | 39193 ft | 464 kts | 69° |
| 2026-05-01 15:03 | 55.80167 | 2.64458 | 39193 ft | 463 kts | 70° |
| 2026-05-01 15:03 | 55.82548 | 2.75114 | 39200 ft | 463 kts | 70° |
| 2026-05-01 15:04 | 55.84904 | 2.85779 | 39198 ft | 463 kts | 70° |
| 2026-05-01 15:04 | 55.87237 | 2.96447 | 39203 ft | 463 kts | 70° |
| 2026-05-01 15:05 | 55.89588 | 3.07155 | 39207 ft | 464 kts | 70° |
| 2026-05-01 15:05 | 55.91916 | 3.17811 | 39211 ft | 464 kts | 70° |
| 2026-05-01 15:06 | 55.94223 | 3.28546 | 39220 ft | 464 kts | 70° |
| 2026-05-01 15:06 | 55.96549 | 3.39307 | 39220 ft | 463 kts | 71° |
| 2026-05-01 15:07 | 55.98863 | 3.50064 | 39221 ft | 464 kts | 70° |
| 2026-05-01 15:07 | 56.01154 | 3.60841 | 39222 ft | 464 kts | 70° |
| 2026-05-01 15:08 | 56.03435 | 3.71628 | 39221 ft | 464 kts | 70° |
| 2026-05-01 15:08 | 56.05696 | 3.82356 | 39222 ft | 464 kts | 70° |
| 2026-05-01 15:09 | 56.07970 | 3.93170 | 39222 ft | 464 kts | 71° |
| 2026-05-01 15:09 | 56.10237 | 4.03990 | 39225 ft | 464 kts | 71° |
| 2026-05-01 15:10 | 56.12490 | 4.14833 | 39227 ft | 464 kts | 70° |
| 2026-05-01 15:10 | 56.15840 | 4.31058 | 39234 ft | 464 kts | 70° |
| 2026-05-01 15:11 | 56.19174 | 4.47378 | 39235 ft | 464 kts | 71° |
| 2026-05-01 15:12 | 56.21381 | 4.58209 | 39236 ft | 464 kts | 71° |
| 2026-05-01 15:12 | 56.24682 | 4.74571 | 39238 ft | 464 kts | 71° |
| 2026-05-01 15:14 | 56.30134 | 5.01905 | 39248 ft | 464 kts | 71° |
| 2026-05-01 15:14 | 56.33363 | 5.18274 | 39251 ft | 464 kts | 71° |
| 2026-05-01 15:15 | 56.37650 | 5.40229 | 39250 ft | 464 kts | 71° |
| 2026-05-01 15:16 | 56.41491 | 5.62495 | 39260 ft | 464 kts | 73° |
| 2026-05-01 15:18 | 56.46419 | 5.90208 | 39266 ft | 464 kts | 72° |
| 2026-05-01 15:19 | 56.50328 | 6.12455 | 39271 ft | 464 kts | 73° |
| 2026-05-01 15:19 | 56.53249 | 6.29229 | 39272 ft | 464 kts | 73° |
| 2026-05-01 15:20 | 56.56147 | 6.45998 | 39269 ft | 465 kts | 73° |
| 2026-05-01 15:21 | 56.58060 | 6.57132 | 39271 ft | 464 kts | 73° |
| 2026-05-01 15:21 | 56.59978 | 6.68353 | 39275 ft | 464 kts | 73° |
| 2026-05-01 15:22 | 56.62793 | 6.85123 | 39279 ft | 464 kts | 73° |
| 2026-05-01 15:22 | 56.64675 | 6.96354 | 39283 ft | 464 kts | 73° |
| 2026-05-01 15:23 | 56.66541 | 7.07597 | 39289 ft | 464 kts | 73° |
| 2026-05-01 15:23 | 56.68387 | 7.18858 | 39284 ft | 465 kts | 73° |
| 2026-05-01 15:24 | 56.70240 | 7.30134 | 39292 ft | 464 kts | 73° |
| 2026-05-01 15:24 | 56.72079 | 7.41393 | 39266 ft | 465 kts | 73° |
| 2026-05-01 15:25 | 56.72993 | 7.47057 | 39006 ft | 466 kts | 73° |
| 2026-05-01 15:25 | 56.73904 | 7.52749 | 38466 ft | 467 kts | 74° |
| 2026-05-01 15:25 | 56.74801 | 7.58364 | 37898 ft | 467 kts | 73° |
| 2026-05-01 15:25 | 56.75716 | 7.64029 | 37342 ft | 465 kts | 74° |
| 2026-05-01 15:26 | 56.76607 | 7.69702 | 36812 ft | 464 kts | 74° |
| 2026-05-01 15:26 | 56.77207 | 7.73453 | 36461 ft | 464 kts | 73° |
| 2026-05-01 15:26 | 56.78110 | 7.79108 | 35946 ft | 464 kts | 74° |
| 2026-05-01 15:26 | 56.78995 | 7.84774 | 35439 ft | 464 kts | 74° |
| 2026-05-01 15:27 | 56.79881 | 7.90444 | 34950 ft | 465 kts | 74° |
| 2026-05-01 15:27 | 56.81072 | 7.97961 | 34295 ft | 465 kts | 74° |
| 2026-05-01 15:27 | 56.81671 | 8.01797 | 33921 ft | 465 kts | 74° |
| 2026-05-01 15:28 | 56.83440 | 8.13172 | 32730 ft | 465 kts | 75° |
| 2026-05-01 15:28 | 56.84320 | 8.18848 | 32156 ft | 462 kts | 75° |
| 2026-05-01 15:28 | 56.85192 | 8.24485 | 31588 ft | 459 kts | 75° |
| 2026-05-01 15:29 | 56.86897 | 8.35551 | 30506 ft | 451 kts | 75° |
| 2026-05-01 15:29 | 56.87741 | 8.41050 | 29897 ft | 447 kts | 75° |
| 2026-05-01 15:29 | 56.89407 | 8.51922 | 28654 ft | 440 kts | 75° |
| 2026-05-01 15:30 | 56.91036 | 8.62558 | 27503 ft | 433 kts | 75° |
| 2026-05-01 15:31 | 56.94185 | 8.83519 | 25282 ft | 419 kts | 75° |
| 2026-05-01 15:31 | 56.95668 | 8.93642 | 24159 ft | 404 kts | 76° |
| 2026-05-01 15:32 | 56.97107 | 9.03396 | 22903 ft | 393 kts | 76° |
| 2026-05-01 15:32 | 56.98516 | 9.12942 | 21643 ft | 382 kts | 76° |
| 2026-05-01 15:33 | 57.00547 | 9.26820 | 19837 ft | 369 kts | 77° |
| 2026-05-01 15:34 | 57.02504 | 9.40264 | 18059 ft | 358 kts | 76° |